GAF777 EDDN-EDDN

Flight info

Callsign GAF777
Flight time 0h 13m
Altitude
Route
Aircraft

Departure

Time 2026-05-07 14:40
Airport Nuremberg Airport (EDDN)

Arrival

Time 2026-05-07 14:53
Airport Nuremberg Airport (EDDN)
Time Latitude Longitude Altitude Speed Heading
2026-05-07 14:29 49.49480 11.06971 1026 ft 0 kts 106°
2026-05-07 14:33 49.49465 11.06957 1023 ft 10 kts 244°
2026-05-07 14:34 49.49495 11.06921 1027 ft 6 kts
2026-05-07 14:34 49.49521 11.06989 1028 ft 12 kts 99°
2026-05-07 14:34 49.49509 11.07114 1028 ft 11 kts 99°
2026-05-07 14:34 49.49538 11.07198 1030 ft 12 kts 12°
2026-05-07 14:35 49.49640 11.07240 1034 ft 2 kts 82°
2026-05-07 14:35 49.49616 11.07468 1035 ft 28 kts 98°
2026-05-07 14:35 49.49607 11.07565 1035 ft 10 kts 99°
2026-05-07 14:35 49.49603 11.07601 1036 ft 0 kts 99°
2026-05-07 14:36 49.49603 11.07603 1036 ft 3 kts 100°
2026-05-07 14:36 49.49596 11.07664 1036 ft 11 kts 99°
2026-05-07 14:36 49.49627 11.07768 1039 ft 12 kts 10°
2026-05-07 14:36 49.49657 11.07772 1040 ft 0 kts
2026-05-07 14:37 49.49786 11.07681 1045 ft 0 kts 334°
2026-05-07 14:39 49.49898 11.07541 1045 ft 26 kts 277°
2026-05-07 14:39 49.50005 11.06422 1101 ft 187 kts 278°
2026-05-07 14:39 49.50211 11.04612 1486 ft 162 kts 280°
2026-05-07 14:40 49.50379 11.02847 1781 ft 180 kts 263°
2026-05-07 14:40 49.49638 11.01376 2048 ft 194 kts 203°
2026-05-07 14:40 49.48348 11.01372 2063 ft 182 kts 155°
2026-05-07 14:40 49.47670 11.02852 1797 ft 169 kts 103°
2026-05-07 14:41 49.47378 11.04630 1577 ft 183 kts 104°
2026-05-07 14:41 49.47076 11.06541 1954 ft 169 kts 102°
2026-05-07 14:41 49.46813 11.08348 2073 ft 182 kts 100°
2026-05-07 14:41 49.46582 11.10188 1952 ft 170 kts 101°
2026-05-07 14:42 49.46412 11.12079 1918 ft 186 kts 97°
2026-05-07 14:42 49.46138 11.14114 2277 ft 193 kts 99°
2026-05-07 14:42 49.46275 11.16214 2437 ft 213 kts 62°
2026-05-07 14:42 49.46986 11.17826 2415 ft 180 kts 34°
2026-05-07 14:43 49.48007 11.18490 2131 ft 164 kts
2026-05-07 14:43 49.49027 11.18363 1942 ft 156 kts 302°
2026-05-07 14:43 49.49210 11.16912 2008 ft 145 kts 269°
2026-05-07 14:43 49.49233 11.15206 1717 ft 182 kts 274°
2026-05-07 14:44 49.49356 11.13358 1471 ft 181 kts 277°
2026-05-07 14:44 49.49512 11.11483 1346 ft 164 kts 278°
2026-05-07 14:44 49.49688 11.09695 1105 ft 167 kts 277°
2026-05-07 14:44 49.49843 11.08079 1043 ft 140 kts 278°
2026-05-07 14:45 49.50052 11.06334 1625 ft 178 kts 282°
2026-05-07 14:45 49.50304 11.04416 2100 ft 189 kts 270°
2026-05-07 14:45 49.49769 11.02636 2418 ft 190 kts 226°
2026-05-07 14:45 49.48648 11.01714 2395 ft 191 kts 201°
2026-05-07 14:46 49.47391 11.02142 2223 ft 212 kts 131°
2026-05-07 14:46 49.46799 11.04115 2323 ft 207 kts 103°
2026-05-07 14:46 49.46635 11.05504 2403 ft 197 kts 95°
2026-05-07 14:46 49.46534 11.07527 2385 ft 180 kts 91°
2026-05-07 14:47 49.46452 11.10152 2193 ft 187 kts 93°
2026-05-07 14:47 49.46240 11.12114 1928 ft 185 kts 102°
2026-05-07 14:47 49.46181 11.14137 1899 ft 193 kts 69°
2026-05-07 14:47 49.46959 11.15711 1989 ft 188 kts 24°
2026-05-07 14:48 49.47786 11.16023 2020 ft 189 kts
2026-05-07 14:48 49.49068 11.16083 2095 ft 190 kts 308°
2026-05-07 14:48 49.49271 11.14100 1748 ft 196 kts 277°
2026-05-07 14:48 49.49460 11.12071 1480 ft 179 kts 278°
2026-05-07 14:49 49.49648 11.10059 1131 ft 194 kts 277°
2026-05-07 14:49 49.49883 11.07683 1052 ft 167 kts 278°
2026-05-07 14:49 49.50008 11.06371 1646 ft 185 kts 277°
2026-05-07 14:49 49.50147 11.04449 2481 ft 177 kts 259°
2026-05-07 14:50 49.49035 11.03779 2307 ft 199 kts 182°
2026-05-07 14:50 49.47694 11.04224 2220 ft 204 kts 133°
2026-05-07 14:50 49.47369 11.06133 2158 ft 192 kts 86°
2026-05-07 14:50 49.47296 11.08129 2040 ft 183 kts 97°
2026-05-07 14:51 49.47122 11.10070 1903 ft 188 kts 96°
2026-05-07 14:51 49.47097 11.12099 1760 ft 198 kts 54°
2026-05-07 14:51 49.48216 11.13209 2235 ft 197 kts 10°
2026-05-07 14:51 49.49445 11.13227 1994 ft 185 kts 289°
2026-05-07 14:52 49.49523 11.11314 1408 ft 170 kts 280°
2026-05-07 14:52 49.49707 11.09505 1084 ft 159 kts 278°
2026-05-07 14:52 49.49861 11.07888 1048 ft 138 kts 278°
2026-05-07 14:52 49.49976 11.06739 1033 ft 59 kts 278°
2026-05-07 14:53 49.49942 11.06478 1031 ft 18 kts 188°
2026-05-07 14:53 49.49850 11.06517 1029 ft 13 kts 152°
2026-05-07 14:53 49.49794 11.06609 1028 ft 12 kts 101°
2026-05-07 14:53 49.49791 11.06637 1028 ft 5 kts 96°
2026-05-07 14:54 49.49787 11.06688 1028 ft 13 kts 98°
2026-05-07 14:54 49.49769 11.06886 1030 ft 10 kts 97°
2026-05-07 14:54 49.49761 11.06961 1031 ft 25 kts 99°
2026-05-07 14:54 49.49736 11.07204 1036 ft 4 kts 99°
2026-05-07 14:55 49.49686 11.07233 1035 ft 13 kts 193°
2026-05-07 14:55 49.49592 11.07208 1032 ft 14 kts 191°
2026-05-07 14:55 49.49506 11.07170 1028 ft 6 kts 252°
2026-05-07 14:55 49.49525 11.06965 1028 ft 17 kts 278°
2026-05-07 14:56 49.49490 11.06917 1027 ft 5 kts 187°
2026-05-07 14:56 49.49470 11.06968 1024 ft 8 kts 100°
2026-05-07 14:56 49.49469 11.06972 1024 ft 0 kts 100°